Andersen AFB, Guam
Current Conditions -  °F | °C
As of 9:58 PM on Thursday 29 Jan 2015 (Local Time) from PGUA Reporting Station
Few Clouds Few Clouds  
Wind Chill: 78°   Ceiling: Unl
Heat Index: 80°   Visibility: 10mi
Dew Point: 72°   Wind: 9mph
Humidity: 82%   Direction: 40°NE
Pressure: 29.91"   Gusts: NA
Location:  13.58°N, 144.92°E
Report Text: PGUA 291158Z AUTO 04008KT 10SM FEW018 26/22 A2991 RMK AO2 SLP119 T02550222 10271 20255 52014 $
Loading
Personal Weather Stations






























Interactive Weather Map New forecast layout! Learn more

10-Day Weather Forecast

Advertisements
Track Severe Weather on mobile